sensor_id;sensor_type;location;lat;lon;timestamp;pressure;altitude;pressure_sealevel;temperature;humidity
61537;BME280;48695;53.480;-6.300;2023-04-26T00:01:16;101222.06;;;11.49;53.78
61537;BME280;48695;53.480;-6.300;2023-04-26T00:03:42;101222.06;;;11.49;54.29
61537;BME280;48695;53.480;-6.300;2023-04-26T00:06:07;101212.50;;;11.48;54.22
61537;BME280;48695;53.480;-6.300;2023-04-26T00:08:34;101216.03;;;11.44;54.05
61537;BME280;48695;53.480;-6.300;2023-04-26T00:11:00;101218.66;;;11.46;54.59
61537;BME280;48695;53.480;-6.300;2023-04-26T00:13:26;101220.41;;;11.43;54.38
61537;BME280;48695;53.480;-6.300;2023-04-26T00:15:51;101212.72;;;11.36;54.57
61537;BME280;48695;53.480;-6.300;2023-04-26T00:18:16;101213.53;;;11.38;54.48
61537;BME280;48695;53.480;-6.300;2023-04-26T00:20:42;101215.22;;;11.42;54.38
61537;BME280;48695;53.480;-6.300;2023-04-26T00:23:07;101207.50;;;11.36;54.48
61537;BME280;48695;53.480;-6.300;2023-04-26T00:25:36;101216.16;;;11.38;54.34
61537;BME280;48695;53.480;-6.300;2023-04-26T00:28:02;101216.19;;;11.36;54.30
61537;BME280;48695;53.480;-6.300;2023-04-26T00:30:27;101216.19;;;11.35;54.57
61537;BME280;48695;53.480;-6.300;2023-04-26T00:32:53;101198.09;;;11.24;54.65
61537;BME280;48695;53.480;-6.300;2023-04-26T00:35:19;101216.28;;;11.32;54.90
61537;BME280;48695;53.480;-6.300;2023-04-26T00:37:44;101207.56;;;11.30;55.21
61537;BME280;48695;53.480;-6.300;2023-04-26T00:40:11;101204.13;;;11.28;55.07
61537;BME280;48695;53.480;-6.300;2023-04-26T00:42:37;101205.84;;;11.29;54.86
61537;BME280;48695;53.480;-6.300;2023-04-26T00:45:03;101202.41;;;11.27;54.59
61537;BME280;48695;53.480;-6.300;2023-04-26T00:47:29;101201.56;;;11.25;54.39
61537;BME280;48695;53.480;-6.300;2023-04-26T00:49:55;101197.22;;;11.24;54.31
61537;BME280;48695;53.480;-6.300;2023-04-26T00:52:21;101194.69;;;11.21;54.45
61537;BME280;48695;53.480;-6.300;2023-04-26T00:54:47;101196.41;;;11.20;54.37
61537;BME280;48695;53.480;-6.300;2023-04-26T00:57:13;101186.88;;;11.17;55.08
61537;BME280;48695;53.480;-6.300;2023-04-26T00:59:39;101185.16;;;11.16;55.12
61537;BME280;48695;53.480;-6.300;2023-04-26T01:02:05;101166.25;;;11.02;54.53
61537;BME280;48695;53.480;-6.300;2023-04-26T01:04:31;101177.38;;;11.13;54.39
61537;BME280;48695;53.480;-6.300;2023-04-26T01:06:58;101169.59;;;11.10;54.73
61537;BME280;48695;53.480;-6.300;2023-04-26T01:09:24;101166.13;;;11.08;54.74
61537;BME280;48695;53.480;-6.300;2023-04-26T01:11:51;101159.22;;;11.06;54.52
61537;BME280;48695;53.480;-6.300;2023-04-26T01:14:17;101150.56;;;11.02;54.73
61537;BME280;48695;53.480;-6.300;2023-04-26T01:16:43;101165.34;;;11.03;54.57
61537;BME280;48695;53.480;-6.300;2023-04-26T01:19:11;101154.06;;;11.01;54.96
61537;BME280;48695;53.480;-6.300;2023-04-26T01:21:37;101156.69;;;11.00;54.63
61537;BME280;48695;53.480;-6.300;2023-04-26T01:24:03;101138.59;;;10.89;54.69
61537;BME280;48695;53.480;-6.300;2023-04-26T01:26:30;101149.78;;;10.97;55.09
61537;BME280;48695;53.480;-6.300;2023-04-26T01:28:56;101145.44;;;10.96;55.18
61537;BME280;48695;53.480;-6.300;2023-04-26T01:31:22;101137.75;;;10.87;55.16
61537;BME280;48695;53.480;-6.300;2023-04-26T01:33:47;101149.81;;;10.96;55.27
61537;BME280;48695;53.480;-6.300;2023-04-26T01:36:13;101154.19;;;10.95;54.88
61537;BME280;48695;53.480;-6.300;2023-04-26T01:38:38;101141.97;;;10.94;55.09
61537;BME280;48695;53.480;-6.300;2023-04-26T01:41:04;101131.59;;;10.91;55.32
61537;BME280;48695;53.480;-6.300;2023-04-26T01:43:29;101134.13;;;10.94;55.58
61537;BME280;48695;53.480;-6.300;2023-04-26T01:45:54;101138.50;;;10.94;54.84
61537;BME280;48695;53.480;-6.300;2023-04-26T01:48:20;101128.13;;;10.89;55.29
61537;BME280;48695;53.480;-6.300;2023-04-26T01:50:45;101135.03;;;10.93;55.09
61537;BME280;48695;53.480;-6.300;2023-04-26T01:53:11;101129.00;;;10.91;55.19
61537;BME280;48695;53.480;-6.300;2023-04-26T01:55:37;101123.75;;;10.91;55.54
61537;BME280;48695;53.480;-6.300;2023-04-26T01:58:02;101123.72;;;10.93;55.71
61537;BME280;48695;53.480;-6.300;2023-04-26T02:00:28;101110.81;;;10.85;55.50
61537;BME280;48695;53.480;-6.300;2023-04-26T02:02:55;101103.09;;;10.77;55.71
61537;BME280;48695;53.480;-6.300;2023-04-26T02:05:21;101105.66;;;10.79;55.24
61537;BME280;48695;53.480;-6.300;2023-04-26T02:07:46;101122.88;;;10.92;55.18
61537;BME280;48695;53.480;-6.300;2023-04-26T02:10:12;101110.00;;;10.81;55.36
61537;BME280;48695;53.480;-6.300;2023-04-26T02:12:38;101119.44;;;10.90;55.54
61537;BME280;48695;53.480;-6.300;2023-04-26T02:15:04;101120.28;;;10.90;55.70
61537;BME280;48695;53.480;-6.300;2023-04-26T02:17:31;101108.28;;;10.80;56.03
61537;BME280;48695;53.480;-6.300;2023-04-26T02:19:57;101112.44;;;10.89;55.92
61537;BME280;48695;53.480;-6.300;2023-04-26T02:22:23;101103.88;;;10.82;56.00
61537;BME280;48695;53.480;-6.300;2023-04-26T02:24:52;101113.28;;;10.93;56.16
61537;BME280;48695;53.480;-6.300;2023-04-26T02:27:18;101114.19;;;10.90;56.28
61537;BME280;48695;53.480;-6.300;2023-04-26T02:29:44;101105.47;;;10.91;55.92
61537;BME280;48695;53.480;-6.300;2023-04-26T02:32:11;101114.19;;;10.90;55.92
61537;BME280;48695;53.480;-6.300;2023-04-26T02:34:37;101105.47;;;10.91;55.91
61537;BME280;48695;53.480;-6.300;2023-04-26T02:37:02;101098.53;;;10.90;55.97
61537;BME280;48695;53.480;-6.300;2023-04-26T02:39:28;101103.75;;;10.90;56.43
61537;BME280;48695;53.480;-6.300;2023-04-26T02:41:53;101097.63;;;10.91;56.48
61537;BME280;48695;53.480;-6.300;2023-04-26T02:44:19;101099.38;;;10.90;56.23
61537;BME280;48695;53.480;-6.300;2023-04-26T02:46:44;101098.53;;;10.90;56.38
61537;BME280;48695;53.480;-6.300;2023-04-26T02:49:10;101075.22;;;10.78;56.81
61537;BME280;48695;53.480;-6.300;2023-04-26T02:51:35;101093.31;;;10.90;56.84
61537;BME280;48695;53.480;-6.300;2023-04-26T02:54:00;101082.84;;;10.90;56.89
61537;BME280;48695;53.480;-6.300;2023-04-26T02:56:27;101082.84;;;10.90;57.04
61537;BME280;48695;53.480;-6.300;2023-04-26T02:58:52;101084.56;;;10.89;56.89
61537;BME280;48695;53.480;-6.300;2023-04-26T03:01:18;101065.63;;;10.80;56.91
61537;BME280;48695;53.480;-6.300;2023-04-26T03:03:44;101080.25;;;10.88;57.30
61537;BME280;48695;53.480;-6.300;2023-04-26T03:06:09;101086.31;;;10.89;57.10
61537;BME280;48695;53.480;-6.300;2023-04-26T03:08:35;101082.84;;;10.88;57.15
61537;BME280;48695;53.480;-6.300;2023-04-26T03:11:01;101086.31;;;10.89;57.23
61537;BME280;48695;53.480;-6.300;2023-04-26T03:13:27;101083.72;;;10.89;57.30
61537;BME280;48695;53.480;-6.300;2023-04-26T03:15:52;101085.50;;;10.87;57.35
61537;BME280;48695;53.480;-6.300;2023-04-26T03:18:18;101072.59;;;10.78;57.50
61537;BME280;48695;53.480;-6.300;2023-04-26T03:20:44;101089.84;;;10.88;57.75
61537;BME280;48695;53.480;-6.300;2023-04-26T03:23:10;101082.06;;;10.85;57.60
61537;BME280;48695;53.480;-6.300;2023-04-26T03:25:36;101085.53;;;10.85;57.54
61537;BME280;48695;53.480;-6.300;2023-04-26T03:28:01;101082.94;;;10.85;57.83
61537;BME280;48695;53.480;-6.300;2023-04-26T03:30:28;101072.47;;;10.85;57.62
61537;BME280;48695;53.480;-6.300;2023-04-26T03:32:53;101074.22;;;10.85;57.95
61537;BME280;48695;53.480;-6.300;2023-04-26T03:35:19;101074.22;;;10.85;57.74
61537;BME280;48695;53.480;-6.300;2023-04-26T03:37:44;101073.38;;;10.83;57.89
61537;BME280;48695;53.480;-6.300;2023-04-26T03:40:10;101076.00;;;10.83;57.70
61537;BME280;48695;53.480;-6.300;2023-04-26T03:42:36;101069.00;;;10.83;57.93
61537;BME280;48695;53.480;-6.300;2023-04-26T03:45:02;101058.59;;;10.82;57.98
61537;BME280;48695;53.480;-6.300;2023-04-26T03:47:31;101063.81;;;10.82;58.29
61537;BME280;48695;53.480;-6.300;2023-04-26T03:49:57;101059.50;;;10.81;57.88
61537;BME280;48695;53.480;-6.300;2023-04-26T03:52:22;101041.41;;;10.69;58.24
61537;BME280;48695;53.480;-6.300;2023-04-26T03:54:48;101052.56;;;10.78;58.32
61537;BME280;48695;53.480;-6.300;2023-04-26T03:57:13;101051.69;;;10.78;58.21
61537;BME280;48695;53.480;-6.300;2023-04-26T03:59:39;101034.47;;;10.68;58.51
61537;BME280;48695;53.480;-6.300;2023-04-26T04:02:04;101048.25;;;10.76;58.47
61537;BME280;48695;53.480;-6.300;2023-04-26T04:04:30;101036.19;;;10.69;58.41
61537;BME280;48695;53.480;-6.300;2023-04-26T04:06:55;101041.38;;;10.72;58.52
61537;BME280;48695;53.480;-6.300;2023-04-26T04:09:21;101037.94;;;10.70;58.58
61537;BME280;48695;53.480;-6.300;2023-04-26T04:11:46;100989.69;;;10.41;58.33
61537;BME280;48695;53.480;-6.300;2023-04-26T04:14:12;101038.78;;;10.70;58.68
61537;BME280;48695;53.480;-6.300;2023-04-26T04:16:37;101041.41;;;10.69;58.62
61537;BME280;48695;53.480;-6.300;2023-04-26T04:19:03;101021.56;;;10.58;58.71
61537;BME280;48695;53.480;-6.300;2023-04-26T04:21:28;101036.25;;;10.65;58.74
61537;BME280;48695;53.480;-6.300;2023-04-26T04:23:53;101025.81;;;10.65;58.49
61537;BME280;48695;53.480;-6.300;2023-04-26T04:26:19;101031.06;;;10.62;58.63
61537;BME280;48695;53.480;-6.300;2023-04-26T04:28:45;101032.00;;;10.58;58.91
61537;BME280;48695;53.480;-6.300;2023-04-26T04:31:11;101031.97;;;10.61;58.97
61537;BME280;48695;53.480;-6.300;2023-04-26T04:33:37;101032.91;;;10.57;59.21
61537;BME280;48695;53.480;-6.300;2023-04-26T04:36:03;101036.41;;;10.56;58.84
61537;BME280;48695;53.480;-6.300;2023-04-26T04:38:29;101023.59;;;10.44;59.18
61537;BME280;48695;53.480;-6.300;2023-04-26T04:40:55;101040.09;;;10.45;58.99
61537;BME280;48695;53.480;-6.300;2023-04-26T04:43:21;101035.75;;;10.44;59.23
61537;BME280;48695;53.480;-6.300;2023-04-26T04:45:47;101035.81;;;10.41;59.00
61537;BME280;48695;53.480;-6.300;2023-04-26T04:48:13;101031.41;;;10.43;59.21
61537;BME280;48695;53.480;-6.300;2023-04-26T04:50:39;101037.56;;;10.40;59.12
61537;BME280;48695;53.480;-6.300;2023-04-26T04:53:06;101041.94;;;10.38;59.05
61537;BME280;48695;53.480;-6.300;2023-04-26T04:55:33;101035.00;;;10.37;59.41
61537;BME280;48695;53.480;-6.300;2023-04-26T04:57:58;101028.09;;;10.33;59.47
61537;BME280;48695;53.480;-6.300;2023-04-26T05:00:24;101029.88;;;10.31;59.61
61537;BME280;48695;53.480;-6.300;2023-04-26T05:02:49;101027.31;;;10.29;59.63
61537;BME280;48695;53.480;-6.300;2023-04-26T05:05:15;101023.88;;;10.26;59.28
61537;BME280;48695;53.480;-6.300;2023-04-26T05:07:40;101008.34;;;10.15;59.32
61537;BME280;48695;53.480;-6.300;2023-04-26T05:10:06;101030.84;;;10.24;59.71
61537;BME280;48695;53.480;-6.300;2023-04-26T05:12:32;101024.78;;;10.22;59.81
61537;BME280;48695;53.480;-6.300;2023-04-26T05:14:57;101021.34;;;10.20;59.30
61537;BME280;48695;53.480;-6.300;2023-04-26T05:17:23;101031.78;;;10.20;59.45
61537;BME280;48695;53.480;-6.300;2023-04-26T05:19:48;101032.63;;;10.19;59.53
61537;BME280;48695;53.480;-6.300;2023-04-26T05:22:14;101040.47;;;10.19;59.87
61537;BME280;48695;53.480;-6.300;2023-04-26T05:24:45;101038.75;;;10.19;59.77
61537;BME280;48695;53.480;-6.300;2023-04-26T05:27:12;101045.69;;;10.19;60.11
61537;BME280;48695;53.480;-6.300;2023-04-26T05:29:37;101044.84;;;10.17;59.59
61537;BME280;48695;53.480;-6.300;2023-04-26T05:32:03;101037.84;;;10.20;59.61
61537;BME280;48695;53.480;-6.300;2023-04-26T05:34:28;101045.66;;;10.22;59.81
61537;BME280;48695;53.480;-6.300;2023-04-26T05:36:54;101019.78;;;10.06;60.34
61537;BME280;48695;53.480;-6.300;2023-04-26T05:39:19;101042.16;;;10.23;59.84
61537;BME280;48695;53.480;-6.300;2023-04-26T05:41:45;101038.69;;;10.24;60.03
61537;BME280;48695;53.480;-6.300;2023-04-26T05:44:15;101036.94;;;10.26;59.92
61537;BME280;48695;53.480;-6.300;2023-04-26T05:46:40;101036.94;;;10.26;60.10
61537;BME280;48695;53.480;-6.300;2023-04-26T05:49:06;101038.63;;;10.27;60.09
61537;BME280;48695;53.480;-6.300;2023-04-26T05:51:31;101034.25;;;10.29;60.44
61537;BME280;48695;53.480;-6.300;2023-04-26T05:53:57;101029.09;;;10.23;60.29
61537;BME280;48695;53.480;-6.300;2023-04-26T05:56:23;101036.81;;;10.32;60.12
61537;BME280;48695;53.480;-6.300;2023-04-26T05:58:49;101038.53;;;10.34;60.23
61537;BME280;48695;53.480;-6.300;2023-04-26T06:01:14;101042.84;;;10.35;60.14
61537;BME280;48695;53.480;-6.300;2023-04-26T06:03:40;101041.94;;;10.38;60.26
61537;BME280;48695;53.480;-6.300;2023-04-26T06:06:05;101040.19;;;10.40;60.40
61537;BME280;48695;53.480;-6.300;2023-04-26T06:08:32;101049.69;;;10.43;59.98
61537;BME280;48695;53.480;-6.300;2023-04-26T06:10:57;101043.56;;;10.45;60.29
61537;BME280;48695;53.480;-6.300;2023-04-26T06:13:23;101047.00;;;10.47;60.26
61537;BME280;48695;53.480;-6.300;2023-04-26T06:15:48;101045.31;;;10.43;60.06
61537;BME280;48695;53.480;-6.300;2023-04-26T06:18:14;101043.47;;;10.51;60.28
61537;BME280;48695;53.480;-6.300;2023-04-26T06:20:39;101052.97;;;10.54;60.27
61537;BME280;48695;53.480;-6.300;2023-04-26T06:23:05;101055.59;;;10.55;60.31
61537;BME280;48695;53.480;-6.300;2023-04-26T06:25:30;101055.56;;;10.57;60.14
61537;BME280;48695;53.480;-6.300;2023-04-26T06:27:56;101064.25;;;10.57;60.39
61537;BME280;48695;53.480;-6.300;2023-04-26T06:30:22;101059.88;;;10.58;60.51
61537;BME280;48695;53.480;-6.300;2023-04-26T06:32:48;101050.28;;;10.58;60.26
61537;BME280;48695;53.480;-6.300;2023-04-26T06:35:13;101050.28;;;10.58;60.11
61537;BME280;48695;53.480;-6.300;2023-04-26T06:37:39;101061.56;;;10.62;60.25
61537;BME280;48695;53.480;-6.300;2023-04-26T06:40:05;101065.00;;;10.64;60.34
61537;BME280;48695;53.480;-6.300;2023-04-26T06:42:30;101048.47;;;10.63;60.33
61537;BME280;48695;53.480;-6.300;2023-04-26T06:44:57;101038.91;;;10.62;60.60
61537;BME280;48695;53.480;-6.300;2023-04-26T06:47:22;101051.84;;;10.69;60.83
61537;BME280;48695;53.480;-6.300;2023-04-26T06:49:47;101056.19;;;10.71;60.34
61537;BME280;48695;53.480;-6.300;2023-04-26T06:52:13;101037.13;;;10.66;60.55
61537;BME280;48695;53.480;-6.300;2023-04-26T06:54:38;101057.91;;;10.72;60.69
61537;BME280;48695;53.480;-6.300;2023-04-26T06:57:03;101051.78;;;10.73;60.62
61537;BME280;48695;53.480;-6.300;2023-04-26T06:59:29;101044.81;;;10.74;60.46
61537;BME280;48695;53.480;-6.300;2023-04-26T07:01:54;101047.50;;;10.71;60.60
61537;BME280;48695;53.480;-6.300;2023-04-26T07:04:20;101056.09;;;10.76;60.36
61537;BME280;48695;53.480;-6.300;2023-04-26T07:06:45;101051.75;;;10.76;60.33
61537;BME280;48695;53.480;-6.300;2023-04-26T07:09:11;101049.97;;;10.77;60.12
61537;BME280;48695;53.480;-6.300;2023-04-26T07:11:37;101027.53;;;10.67;60.60
61537;BME280;48695;53.480;-6.300;2023-04-26T07:14:04;101049.88;;;10.83;60.36
61537;BME280;48695;53.480;-6.300;2023-04-26T07:16:29;101054.19;;;10.85;60.79
61537;BME280;48695;53.480;-6.300;2023-04-26T07:18:55;101036.03;;;10.78;60.87
61537;BME280;48695;53.480;-6.300;2023-04-26T07:21:24;101048.00;;;10.91;60.68
61537;BME280;48695;53.480;-6.300;2023-04-26T07:23:56;101046.16;;;10.95;60.46
61537;BME280;48695;53.480;-6.300;2023-04-26T07:26:23;101049.53;;;11.01;60.63
61537;BME280;48695;53.480;-6.300;2023-04-26T07:28:52;101056.34;;;11.08;60.46
61537;BME280;48695;53.480;-6.300;2023-04-26T07:31:19;101055.41;;;11.12;60.92
61537;BME280;48695;53.480;-6.300;2023-04-26T07:33:44;101046.50;;;11.23;60.93
61537;BME280;48695;53.480;-6.300;2023-04-26T07:36:10;101044.56;;;11.32;60.87
61537;BME280;48695;53.480;-6.300;2023-04-26T07:38:36;101042.63;;;11.42;60.47
61537;BME280;48695;53.480;-6.300;2023-04-26T07:41:01;101045.88;;;11.53;60.65
61537;BME280;48695;53.480;-6.300;2023-04-26T07:43:28;101051.69;;;11.67;60.27
61537;BME280;48695;53.480;-6.300;2023-04-26T07:45:54;101039.22;;;11.79;60.08
61537;BME280;48695;53.480;-6.300;2023-04-26T07:48:20;101040.75;;;11.89;59.65
61537;BME280;48695;53.480;-6.300;2023-04-26T07:50:45;101037.94;;;11.98;59.24
61537;BME280;48695;53.480;-6.300;2023-04-26T07:53:10;101030.00;;;12.01;59.29
61537;BME280;48695;53.480;-6.300;2023-04-26T07:55:36;101048.75;;;12.22;58.85
61537;BME280;48695;53.480;-6.300;2023-04-26T07:58:02;101045.00;;;12.32;59.00
61537;BME280;48695;53.480;-6.300;2023-04-26T08:00:28;101026.63;;;12.33;57.99
61537;BME280;48695;53.480;-6.300;2023-04-26T08:02:53;101044.47;;;12.53;57.11
61537;BME280;48695;53.480;-6.300;2023-04-26T08:05:19;101009.75;;;12.45;57.17
61537;BME280;48695;53.480;-6.300;2023-04-26T08:07:44;101047.56;;;12.69;57.13
61537;BME280;48695;53.480;-6.300;2023-04-26T08:10:10;101038.59;;;12.78;56.25
61537;BME280;48695;53.480;-6.300;2023-04-26T08:12:36;101047.09;;;12.86;56.11
61537;BME280;48695;53.480;-6.300;2023-04-26T08:15:03;101051.31;;;12.93;56.21
61537;BME280;48695;53.480;-6.300;2023-04-26T08:17:29;101037.41;;;12.89;56.22
61537;BME280;48695;53.480;-6.300;2023-04-26T08:19:56;101058.75;;;13.08;55.51
61537;BME280;48695;53.480;-6.300;2023-04-26T08:22:21;101037.59;;;13.14;54.98
61537;BME280;48695;53.480;-6.300;2023-04-26T08:24:48;101050.38;;;13.28;54.97
61537;BME280;48695;53.480;-6.300;2023-04-26T08:27:15;101051.03;;;13.35;54.43
61537;BME280;48695;53.480;-6.300;2023-04-26T08:29:40;101045.69;;;13.38;54.60
61537;BME280;48695;53.480;-6.300;2023-04-26T08:32:07;101057.63;;;13.49;53.88
61537;BME280;48695;53.480;-6.300;2023-04-26T08:34:32;101056.47;;;13.58;53.38
61537;BME280;48695;53.480;-6.300;2023-04-26T08:36:58;101050.16;;;13.65;53.65
61537;BME280;48695;53.480;-6.300;2023-04-26T08:39:23;101036.19;;;13.63;53.11
61537;BME280;48695;53.480;-6.300;2023-04-26T08:41:54;101055.78;;;13.81;53.56
61537;BME280;48695;53.480;-6.300;2023-04-26T08:44:23;101056.56;;;13.85;52.20
61537;BME280;48695;53.480;-6.300;2023-04-26T08:51:49;101033.66;;;13.90;52.24
61537;BME280;48695;53.480;-6.300;2023-04-26T08:54:16;101049.66;;;14.09;52.64
61537;BME280;48695;53.480;-6.300;2023-04-26T08:56:43;101039.84;;;14.15;51.52
61537;BME280;48695;53.480;-6.300;2023-04-26T08:59:09;101044.81;;;14.24;50.98
61537;BME280;48695;53.480;-6.300;2023-04-26T09:01:38;101044.59;;;14.31;51.15
61537;BME280;48695;53.480;-6.300;2023-04-26T09:04:04;101041.78;;;14.37;50.31
61537;BME280;48695;53.480;-6.300;2023-04-26T09:06:31;101047.72;;;14.42;50.79
61537;BME280;48695;53.480;-6.300;2023-04-26T09:08:58;101040.78;;;14.41;50.82
61537;BME280;48695;53.480;-6.300;2023-04-26T09:11:25;101050.81;;;14.56;50.80
61537;BME280;48695;53.480;-6.300;2023-04-26T09:13:51;101050.59;;;14.62;51.23
61537;BME280;48695;53.480;-6.300;2023-04-26T09:16:16;101039.78;;;14.71;51.52
61537;BME280;48695;53.480;-6.300;2023-04-26T09:18:51;101037.53;;;14.86;51.79
61537;BME280;48695;53.480;-6.300;2023-04-26T09:21:16;101046.09;;;14.91;50.95
61537;BME280;48695;53.480;-6.300;2023-04-26T09:24:00;101047.28;;;15.07;51.69
61537;BME280;48695;53.480;-6.300;2023-04-26T09:26:30;101040.94;;;15.13;50.58
61537;BME280;48695;53.480;-6.300;2023-04-26T09:29:16;101041.22;;;15.28;52.35
61537;BME280;48695;53.480;-6.300;2023-04-26T09:31:46;101034.72;;;15.39;50.56
61537;BME280;48695;53.480;-6.300;2023-04-26T09:34:13;101031.75;;;15.48;51.19
61537;BME280;48695;53.480;-6.300;2023-04-26T09:36:51;101030.94;;;15.69;51.45
61537;BME280;48695;53.480;-6.300;2023-04-26T09:39:34;101029.25;;;15.90;51.59
61537;BME280;48695;53.480;-6.300;2023-04-26T09:42:05;101040.03;;;16.06;49.45
61537;BME280;48695;53.480;-6.300;2023-04-26T09:44:31;101039.31;;;16.24;49.69
61537;BME280;48695;53.480;-6.300;2023-04-26T09:47:08;101032.09;;;16.50;50.73
61537;BME280;48695;53.480;-6.300;2023-04-26T09:49:48;101028.44;;;16.74;50.28
61537;BME280;48695;53.480;-6.300;2023-04-26T09:52:17;101036.47;;;16.92;49.06
61537;BME280;48695;53.480;-6.300;2023-04-26T09:54:51;101028.25;;;17.18;48.49
61537;BME280;48695;53.480;-6.300;2023-04-26T09:57:18;101038.22;;;17.51;47.91
61537;BME280;48695;53.480;-6.300;2023-04-26T09:59:48;101032.25;;;17.85;47.48
61537;BME280;48695;53.480;-6.300;2023-04-26T10:02:24;101031.69;;;18.14;47.92
61537;BME280;48695;53.480;-6.300;2023-04-26T10:04:51;101036.94;;;18.33;45.98
61537;BME280;48695;53.480;-6.300;2023-04-26T10:07:18;101042.13;;;18.71;50.84
61537;BME280;48695;53.480;-6.300;2023-04-26T10:09:44;101033.63;;;18.82;44.70
61537;BME280;48695;53.480;-6.300;2023-04-26T10:12:12;101026.38;;;19.03;43.37
61537;BME280;48695;53.480;-6.300;2023-04-26T10:14:39;101033.50;;;19.18;42.65
61537;BME280;48695;53.480;-6.300;2023-04-26T10:17:06;101020.72;;;19.26;42.70
61537;BME280;48695;53.480;-6.300;2023-04-26T10:19:33;101029.53;;;19.42;42.33
61537;BME280;48695;53.480;-6.300;2023-04-26T10:21:59;101023.59;;;19.70;48.07
61537;BME280;48695;53.480;-6.300;2023-04-26T10:24:26;101031.28;;;19.75;42.46
61537;BME280;48695;53.480;-6.300;2023-04-26T10:26:54;101026.31;;;20.01;42.63
61537;BME280;48695;53.480;-6.300;2023-04-26T10:29:24;101030.00;;;20.14;42.29
61537;BME280;48695;53.480;-6.300;2023-04-26T10:34:25;101013.53;;;20.69;40.52
61537;BME280;48695;53.480;-6.300;2023-04-26T10:37:06;101014.50;;;21.11;44.31
61537;BME280;48695;53.480;-6.300;2023-04-26T10:39:36;101026.09;;;21.24;40.75
61537;BME280;48695;53.480;-6.300;2023-04-26T10:42:26;101029.47;;;21.69;44.07
61537;BME280;48695;53.480;-6.300;2023-04-26T10:47:31;101006.97;;;22.01;38.53
61537;BME280;48695;53.480;-6.300;2023-04-26T10:50:15;101023.31;;;22.37;40.81
61537;BME280;48695;53.480;-6.300;2023-04-26T10:55:38;101015.06;;;22.67;40.00
61537;BME280;48695;53.480;-6.300;2023-04-26T11:03:29;101014.88;;;23.08;37.72
61537;BME280;48695;53.480;-6.300;2023-04-26T11:05:55;101017.63;;;23.32;35.05
61537;BME280;48695;53.480;-6.300;2023-04-26T11:08:28;101011.03;;;23.62;35.35
61537;BME280;48695;53.480;-6.300;2023-04-26T11:13:29;101020.25;;;23.94;32.57
61537;BME280;48695;53.480;-6.300;2023-04-26T11:15:59;101021.97;;;24.19;35.84
61537;BME280;48695;53.480;-6.300;2023-04-26T11:18:29;100982.28;;;24.15;32.79
61537;BME280;48695;53.480;-6.300;2023-04-26T11:20:55;101006.69;;;24.56;31.83
61537;BME280;48695;53.480;-6.300;2023-04-26T11:23:21;101011.34;;;24.77;31.59
61537;BME280;48695;53.480;-6.300;2023-04-26T11:25:47;101007.50;;;24.92;30.36
61537;BME280;48695;53.480;-6.300;2023-04-26T11:28:13;101005.84;;;25.14;30.16
61537;BME280;48695;53.480;-6.300;2023-04-26T11:30:38;101005.72;;;25.26;29.94
61537;BME280;48695;53.480;-6.300;2023-04-26T11:33:04;101000.50;;;25.36;31.03
61537;BME280;48695;53.480;-6.300;2023-04-26T11:35:33;101023.22;;;25.75;30.90
61537;BME280;48695;53.480;-6.300;2023-04-26T11:37:59;101012.34;;;25.88;30.49
61537;BME280;48695;53.480;-6.300;2023-04-26T11:40:31;101027.31;;;26.23;32.22
61537;BME280;48695;53.480;-6.300;2023-04-26T11:43:04;101032.88;;;26.42;30.30
61537;BME280;48695;53.480;-6.300;2023-04-26T11:45:34;101022.53;;;26.58;27.45
61537;BME280;48695;53.480;-6.300;2023-04-26T11:48:01;101013.06;;;26.54;26.25
61537;BME280;48695;53.480;-6.300;2023-04-26T11:50:28;101032.09;;;26.51;26.98
61537;BME280;48695;53.480;-6.300;2023-04-26T11:52:55;101035.22;;;26.56;27.57
61537;BME280;48695;53.480;-6.300;2023-04-26T11:55:27;101007.06;;;26.62;28.53
61537;BME280;48695;53.480;-6.300;2023-04-26T11:57:53;101029.41;;;26.72;27.07
61537;BME280;48695;53.480;-6.300;2023-04-26T12:00:19;101039.13;;;26.94;27.09
61537;BME280;48695;53.480;-6.300;2023-04-26T12:02:45;101035.84;;;27.11;24.53
61537;BME280;48695;53.480;-6.300;2023-04-26T12:05:29;101035.41;;;27.37;28.99
61537;BME280;48695;53.480;-6.300;2023-04-26T12:07:56;101029.75;;;27.30;24.77
61537;BME280;48695;53.480;-6.300;2023-04-26T12:10:26;101032.56;;;27.29;27.16
61537;BME280;48695;53.480;-6.300;2023-04-26T12:12:53;101044.88;;;27.10;25.49
61537;BME280;48695;53.480;-6.300;2023-04-26T12:15:33;101043.25;;;26.98;27.81
61537;BME280;48695;53.480;-6.300;2023-04-26T12:18:06;101030.25;;;26.73;27.05
61537;BME280;48695;53.480;-6.300;2023-04-26T12:20:38;101044.44;;;26.43;25.61
61537;BME280;48695;53.480;-6.300;2023-04-26T12:23:13;101047.94;;;26.11;27.05
61537;BME280;48695;53.480;-6.300;2023-04-26T12:25:40;101040.56;;;25.70;25.87
61537;BME280;48695;53.480;-6.300;2023-04-26T12:28:09;101032.22;;;25.29;24.24
61537;BME280;48695;53.480;-6.300;2023-04-26T12:30:37;100980.13;;;24.55;25.85
61537;BME280;48695;53.480;-6.300;2023-04-26T12:33:03;101017.81;;;24.39;26.92
61537;BME280;48695;53.480;-6.300;2023-04-26T12:35:30;101031.72;;;24.07;25.30
61537;BME280;48695;53.480;-6.300;2023-04-26T12:37:56;101035.91;;;23.75;27.10
61537;BME280;48695;53.480;-6.300;2023-04-26T12:40:25;101034.03;;;23.39;27.58
61537;BME280;48695;53.480;-6.300;2023-04-26T12:42:51;101043.34;;;23.08;27.60
61537;BME280;48695;53.480;-6.300;2023-04-26T12:45:18;101039.25;;;22.76;28.38
61537;BME280;48695;53.480;-6.300;2023-04-26T12:47:47;101039.50;;;22.46;28.13
61537;BME280;48695;53.480;-6.300;2023-04-26T12:50:13;101040.38;;;22.20;28.51
61537;BME280;48695;53.480;-6.300;2023-04-26T12:52:40;101032.47;;;21.91;28.74
61537;BME280;48695;53.480;-6.300;2023-04-26T12:55:06;101041.72;;;21.71;29.60
61537;BME280;48695;53.480;-6.300;2023-04-26T12:57:34;101028.19;;;21.47;28.74
61537;BME280;48695;53.480;-6.300;2023-04-26T13:00:00;101027.59;;;21.28;29.96